createdAt,value
2022-11-07T00:01:46.420Z,2.33
2022-11-07T00:04:14.269Z,2.05
2022-11-07T00:06:41.951Z,2.20
2022-11-07T00:09:09.691Z,2.10
2022-11-07T00:11:37.533Z,2.75
2022-11-07T00:14:05.219Z,2.53
2022-11-07T00:16:34.206Z,3.08
2022-11-07T00:19:01.870Z,1.92
2022-11-07T00:21:29.375Z,1.88
2022-11-07T00:23:57.347Z,2.20
2022-11-07T00:26:25.222Z,2.08
2022-11-07T00:28:52.846Z,1.80
2022-11-07T00:31:20.421Z,2.20
2022-11-07T00:33:49.494Z,2.40
2022-11-07T00:36:18.915Z,1.98
2022-11-07T00:38:46.859Z,1.77
2022-11-07T00:41:14.560Z,1.60
2022-11-07T00:43:42.270Z,2.17
2022-11-07T00:46:11.058Z,1.58
2022-11-07T00:48:39.082Z,1.77
2022-11-07T00:51:08.962Z,1.75
2022-11-07T00:53:37.071Z,1.80
2022-11-07T00:56:05.593Z,1.60
2022-11-07T00:58:33.399Z,1.70
2022-11-07T01:01:01.350Z,1.45
2022-11-07T01:03:47.014Z,1.73
2022-11-07T01:06:15.938Z,6.85
2022-11-07T01:08:43.821Z,1.60
2022-11-07T01:11:11.455Z,3.78
2022-11-07T01:13:39.077Z,1.13
2022-11-07T01:16:09.319Z,1.63
2022-11-07T01:18:36.884Z,1.67
2022-11-07T01:21:05.109Z,1.73
2022-11-07T01:23:34.274Z,1.23
2022-11-07T01:26:04.525Z,1.95
2022-11-07T01:28:32.080Z,2.10
2022-11-07T01:30:59.781Z,2.97
2022-11-07T01:33:27.335Z,1.45
2022-11-07T01:35:55.039Z,1.50
2022-11-07T01:38:22.719Z,1.52
2022-11-07T01:41:09.366Z,2.88
2022-11-07T01:43:44.428Z,1.55
2022-11-07T01:46:12.038Z,1.58
2022-11-07T01:48:40.640Z,1.40
2022-11-07T01:51:08.818Z,1.95
2022-11-07T01:53:36.839Z,1.58
2022-11-07T01:56:06.322Z,1.65
2022-11-07T01:58:34.008Z,1.45
2022-11-07T02:01:01.754Z,1.55
2022-11-07T02:03:29.253Z,1.50
2022-11-07T02:05:58.852Z,3.90
2022-11-07T02:08:27.004Z,1.40
2022-11-07T02:10:55.104Z,1.83
2022-11-07T02:13:25.964Z,2.00
2022-11-07T02:15:53.720Z,1.55
2022-11-07T02:18:22.218Z,1.70
2022-11-07T02:20:49.898Z,1.98
2022-11-07T02:23:21.319Z,1.70
2022-11-07T02:25:50.324Z,1.75
2022-11-07T02:28:17.873Z,1.73
2022-11-07T02:30:45.360Z,1.58
2022-11-07T02:33:19.373Z,1.65
2022-11-07T02:35:48.046Z,3.35
2022-11-07T02:38:17.952Z,2.17
2022-11-07T02:40:46.596Z,1.73
2022-11-07T02:43:17.441Z,2.08
2022-11-07T02:45:46.333Z,1.45
2022-11-07T02:48:13.810Z,1.48
2022-11-07T02:50:41.590Z,1.70
2022-11-07T02:53:09.217Z,1.70
2022-11-07T02:55:38.882Z,2.47
2022-11-07T02:58:06.489Z,2.03
2022-11-07T03:00:35.536Z,1.70
2022-11-07T03:03:03.184Z,1.67
2022-11-07T03:05:30.699Z,2.25
2022-11-07T03:07:58.190Z,1.88
2022-11-07T03:10:25.849Z,1.50
2022-11-07T03:12:53.394Z,3.28
2022-11-07T03:15:20.940Z,2.95
2022-11-07T03:17:49.743Z,1.83
2022-11-07T03:20:17.562Z,1.67
2022-11-07T03:22:45.480Z,3.08
2022-11-07T03:25:12.965Z,3.10
2022-11-07T03:27:46.779Z,1.92
2022-11-07T03:30:14.354Z,3.03
2022-11-07T03:32:41.903Z,1.52
2022-11-07T03:35:11.396Z,3.80
2022-11-07T03:37:39.237Z,1.70
2022-11-07T03:40:07.618Z,1.80
2022-11-07T03:42:38.877Z,2.17
2022-11-07T03:45:07.518Z,2.42
2022-11-07T03:47:35.914Z,5.10
2022-11-07T03:50:03.854Z,1.52
2022-11-07T03:52:32.715Z,3.00
2022-11-07T03:55:00.183Z,1.50
2022-11-07T03:57:30.237Z,1.40
2022-11-07T03:59:57.794Z,1.50
2022-11-07T04:02:25.429Z,1.50
2022-11-07T04:04:53.092Z,1.52
2022-11-07T04:07:20.581Z,2.45
2022-11-07T04:09:50.840Z,1.52
2022-11-07T04:12:35.866Z,1.58
2022-11-07T04:15:21.016Z,2.63
2022-11-07T04:17:48.647Z,2.75
2022-11-07T04:20:18.468Z,1.95
2022-11-07T04:22:45.936Z,2.00
2022-11-07T04:25:15.149Z,1.70
2022-11-07T04:27:44.533Z,2.05
2022-11-07T04:30:24.480Z,1.55
2022-11-07T04:32:52.985Z,3.50
2022-11-07T04:35:20.945Z,1.75
2022-11-07T04:37:48.841Z,1.83
2022-11-07T04:40:18.731Z,3.03
2022-11-07T04:42:46.791Z,2.28
2022-11-07T04:45:14.828Z,1.92
2022-11-07T04:47:44.255Z,1.77
2022-11-07T04:50:13.271Z,3.60
2022-11-07T04:52:41.074Z,1.58
2022-11-07T04:55:09.993Z,1.67
2022-11-07T04:57:42.934Z,2.25
2022-11-07T05:00:12.004Z,1.35
2022-11-07T05:02:39.589Z,4.07
2022-11-07T05:05:07.814Z,1.80
2022-11-07T05:07:35.312Z,5.80
2022-11-07T05:10:02.901Z,4.05
2022-11-07T05:12:30.459Z,1.63
2022-11-07T05:14:59.688Z,2.33
2022-11-07T05:17:28.300Z,3.13
2022-11-07T05:19:55.866Z,2.15
2022-11-07T05:26:02.509Z,2.30
2022-11-07T05:28:38.234Z,4.82
2022-11-07T05:31:08.726Z,2.67
2022-11-07T05:33:36.525Z,4.53
2022-11-07T05:36:10.885Z,3.05
2022-11-07T05:38:38.552Z,2.60
2022-11-07T05:41:06.219Z,2.35
2022-11-07T05:43:33.904Z,2.15
2022-11-07T05:46:01.961Z,4.10
2022-11-07T05:48:31.647Z,6.95
2022-11-07T05:50:59.208Z,2.45
2022-11-07T05:53:26.935Z,3.80
2022-11-07T05:55:54.917Z,2.55
2022-11-07T05:58:23.140Z,3.95
2022-11-07T06:00:50.686Z,2.15
2022-11-07T06:03:20.319Z,3.17
2022-11-07T06:05:49.617Z,4.80
2022-11-07T06:08:17.417Z,3.63
2022-11-07T06:10:45.249Z,4.15
2022-11-07T06:13:14.250Z,3.38
2022-11-07T06:15:42.432Z,2.92
2022-11-07T06:18:12.735Z,3.47
2022-11-07T06:20:40.553Z,3.50
2022-11-07T06:23:09.581Z,2.17
2022-11-07T06:25:37.546Z,1.52
2022-11-07T06:28:06.586Z,2.63
2022-11-07T06:30:34.306Z,2.25
2022-11-07T06:33:02.843Z,3.72
2022-11-07T06:35:30.641Z,3.22
2022-11-07T06:37:58.387Z,3.28
2022-11-07T06:40:27.306Z,4.53
2022-11-07T06:42:55.616Z,2.33
2022-11-07T06:45:28.599Z,6.03
2022-11-07T06:47:56.157Z,1.70
2022-11-07T06:50:23.728Z,5.55
2022-11-07T06:52:51.236Z,4.75
2022-11-07T06:55:21.971Z,3.45
2022-11-07T06:57:53.073Z,3.47
2022-11-07T07:00:22.773Z,2.20
2022-11-07T07:02:58.609Z,15.05
2022-11-07T07:05:26.668Z,11.27
2022-11-07T07:07:54.950Z,6.53
2022-11-07T07:10:22.521Z,6.72
2022-11-07T07:12:50.205Z,5.82
2022-11-07T07:15:17.982Z,6.30
2022-11-07T07:17:46.951Z,21.20
2022-11-07T07:20:14.593Z,7.07
2022-11-07T07:22:42.284Z,5.25
2022-11-07T07:25:10.390Z,4.43
2022-11-07T07:27:37.945Z,2.97
2022-11-07T07:30:05.965Z,3.92
2022-11-07T07:32:35.973Z,5.82
2022-11-07T07:35:05.845Z,3.53
2022-11-07T07:37:33.990Z,2.72
2022-11-07T07:40:01.714Z,5.53
2022-11-07T07:42:29.277Z,5.40
2022-11-07T07:44:56.845Z,1.73
2022-11-07T07:47:24.358Z,4.72
2022-11-07T07:49:52.005Z,3.88
2022-11-07T07:52:21.563Z,3.83
2022-11-07T07:54:49.124Z,4.63
2022-11-07T07:57:16.797Z,4.15
2022-11-07T07:59:44.425Z,3.85
2022-11-07T08:02:12.688Z,2.22
2022-11-07T08:04:41.706Z,2.60
2022-11-07T08:07:09.412Z,2.92
2022-11-07T08:09:38.391Z,2.03
2022-11-07T08:12:06.568Z,7.03
2022-11-07T08:14:34.187Z,3.35
2022-11-07T08:17:02.054Z,2.80
2022-11-07T08:19:29.640Z,2.65
2022-11-07T08:21:57.435Z,4.22
2022-11-07T08:24:25.145Z,2.67
2022-11-07T08:26:54.169Z,2.22
2022-11-07T08:29:22.526Z,3.75
2022-11-07T08:31:50.853Z,6.28
2022-11-07T08:34:18.766Z,5.30
2022-11-07T08:36:46.456Z,5.60
2022-11-07T08:39:14.090Z,5.25
2022-11-07T08:41:41.942Z,2.83
2022-11-07T08:44:11.161Z,7.07
2022-11-07T08:46:38.933Z,3.72
2022-11-07T08:49:06.522Z,2.63
2022-11-07T08:51:34.142Z,4.88
2022-11-07T08:54:01.742Z,4.95
2022-11-07T08:56:29.550Z,5.38
2022-11-07T08:58:57.298Z,5.70
2022-11-07T09:01:26.370Z,4.82
2022-11-07T09:03:57.937Z,4.57
2022-11-07T09:06:26.179Z,5.68
2022-11-07T09:08:53.998Z,9.68
2022-11-07T09:11:21.997Z,4.80
2022-11-07T09:13:49.919Z,3.08
2022-11-07T09:16:18.366Z,2.58
2022-11-07T09:18:48.340Z,3.60
2022-11-07T09:21:21.736Z,6.97
2022-11-07T09:23:50.201Z,4.68
2022-11-07T09:26:17.921Z,3.78
2022-11-07T09:28:50.008Z,3.60
2022-11-07T09:31:19.840Z,5.60
2022-11-07T09:33:51.352Z,2.83
2022-11-07T09:36:18.927Z,5.15
2022-11-07T09:38:46.535Z,3.42
2022-11-07T09:41:17.612Z,3.30
2022-11-07T09:43:56.445Z,5.88
2022-11-07T09:46:28.771Z,5.30
2022-11-07T09:48:59.643Z,6.15
2022-11-07T09:51:29.636Z,4.43
2022-11-07T09:53:58.734Z,5.75
2022-11-07T09:56:27.849Z,2.58
2022-11-07T09:58:56.561Z,2.00
2022-11-07T10:01:24.168Z,3.40
2022-11-07T10:04:22.928Z,5.18
2022-11-07T10:06:45.318Z,6.30
2022-11-07T10:09:16.807Z,5.88
2022-11-07T10:11:46.930Z,7.38
2022-11-07T10:14:18.919Z,3.88
2022-11-07T10:16:53.090Z,2.45
2022-11-07T10:19:36.764Z,2.25
2022-11-07T10:22:12.708Z,4.47
2022-11-07T10:24:46.340Z,6.03
2022-11-07T10:27:14.342Z,8.77
2022-11-07T10:29:45.164Z,6.13
2022-11-07T10:32:19.263Z,7.20
2022-11-07T10:34:53.264Z,17.15
2022-11-07T10:37:23.568Z,8.02
2022-11-07T10:39:51.346Z,10.23
2022-11-07T10:42:20.897Z,5.72
2022-11-07T10:44:49.150Z,4.32
2022-11-07T10:47:17.752Z,6.50
2022-11-07T10:49:55.120Z,3.85
2022-11-07T10:52:24.286Z,9.32
2022-11-07T10:54:51.942Z,3.80
2022-11-07T10:57:20.472Z,5.72
2022-11-07T10:59:57.767Z,2.15
2022-11-07T11:02:26.566Z,3.28
2022-11-07T11:04:55.454Z,5.65
2022-11-07T11:07:28.603Z,5.97
2022-11-07T11:09:57.586Z,2.40
2022-11-07T11:12:26.382Z,3.38
2022-11-07T11:15:04.019Z,7.95
2022-11-07T11:17:31.774Z,8.00
2022-11-07T11:19:59.483Z,6.72
2022-11-07T11:22:29.333Z,6.68
2022-11-07T11:25:00.585Z,7.88
2022-11-07T11:27:30.567Z,4.57
2022-11-07T11:30:00.166Z,3.35
2022-11-07T11:32:31.191Z,8.98
2022-11-07T11:35:14.572Z,5.47
2022-11-07T11:37:45.019Z,3.15
2022-11-07T11:40:16.334Z,2.65
2022-11-07T11:42:48.309Z,4.07
2022-11-07T11:45:20.342Z,2.63
2022-11-07T11:47:51.160Z,3.33
2022-11-07T11:50:19.752Z,3.13
2022-11-07T11:52:48.649Z,3.08
2022-11-07T11:55:18.176Z,2.80
2022-11-07T11:57:53.239Z,5.65
2022-11-07T12:00:21.596Z,4.07
2022-11-07T12:03:17.067Z,3.20
2022-11-07T12:05:51.139Z,5.10
2022-11-07T12:08:25.546Z,5.47
2022-11-07T12:10:54.798Z,5.18
2022-11-07T12:13:28.454Z,3.30
2022-11-07T12:16:05.105Z,5.25
2022-11-07T12:18:36.372Z,3.03
2022-11-07T12:21:10.640Z,10.23
2022-11-07T12:23:46.531Z,3.58
2022-11-07T12:26:15.964Z,4.78
2022-11-07T12:28:47.995Z,5.07
2022-11-07T12:31:21.929Z,6.30
2022-11-07T12:33:51.956Z,5.57
2022-11-07T12:36:25.941Z,1.98
2022-11-07T12:39:02.903Z,4.72
2022-11-07T12:41:34.561Z,2.05
2022-11-07T12:44:07.721Z,3.00
2022-11-07T12:46:40.938Z,6.43
2022-11-07T12:49:19.199Z,7.60
2022-11-07T12:51:53.471Z,4.18
2022-11-07T12:54:33.094Z,3.13
2022-11-07T12:57:03.738Z,4.60
2022-11-07T12:59:32.428Z,5.75
2022-11-07T13:02:02.998Z,3.22
2022-11-07T13:04:36.079Z,1.92
2022-11-07T13:07:07.138Z,3.22
2022-11-07T13:09:38.501Z,2.35
2022-11-07T13:12:09.927Z,1.50
2022-11-07T13:14:39.934Z,4.05
2022-11-07T13:17:16.431Z,2.78
2022-11-07T13:19:45.339Z,5.38
2022-11-07T13:22:23.642Z,2.88
2022-11-07T13:24:54.774Z,8.82
2022-11-07T13:27:23.638Z,4.18
2022-11-07T13:29:51.458Z,3.00
2022-11-07T13:32:18.940Z,1.90
2022-11-07T13:34:49.777Z,6.65
2022-11-07T13:37:19.890Z,4.28
2022-11-07T13:39:48.333Z,4.47
2022-11-07T13:42:18.827Z,4.88
2022-11-07T13:44:51.965Z,2.03
2022-11-07T13:47:23.728Z,5.65
2022-11-07T13:49:52.156Z,4.50
2022-11-07T13:52:23.969Z,4.10
2022-11-07T13:54:54.660Z,5.53
2022-11-07T13:57:25.338Z,4.00
2022-11-07T13:59:55.109Z,5.90
2022-11-07T14:02:24.318Z,4.85
2022-11-07T14:07:43.099Z,3.63
2022-11-07T14:10:19.181Z,3.17
2022-11-07T14:12:48.877Z,1.90
2022-11-07T14:15:17.627Z,6.38
2022-11-07T14:17:46.353Z,3.58
2022-11-07T14:20:16.440Z,4.78
2022-11-07T14:22:54.823Z,3.97
2022-11-07T14:25:24.298Z,6.18
2022-11-07T14:27:53.557Z,6.28
2022-11-07T14:30:22.375Z,7.75
2022-11-07T14:32:50.920Z,2.90
2022-11-07T14:35:23.269Z,4.25
2022-11-07T14:37:51.197Z,3.78
2022-11-07T14:40:19.034Z,7.95
2022-11-07T14:42:49.912Z,2.60
2022-11-07T14:45:39.200Z,2.47
2022-11-07T14:48:08.356Z,2.60
2022-11-07T14:50:35.906Z,2.78
2022-11-07T14:53:05.376Z,4.68
2022-11-07T14:55:34.645Z,2.10
2022-11-07T14:58:03.166Z,5.38
2022-11-07T15:00:32.882Z,3.03
2022-11-07T15:03:01.116Z,3.03
2022-11-07T15:05:29.649Z,4.13
2022-11-07T15:07:58.391Z,3.15
2022-11-07T15:10:27.999Z,2.63
2022-11-07T15:13:00.552Z,2.17
2022-11-07T15:15:30.206Z,3.25
2022-11-07T15:18:00.303Z,2.28
2022-11-07T15:20:35.127Z,6.68
2022-11-07T15:23:03.842Z,1.70
2022-11-07T15:25:34.711Z,4.45
2022-11-07T15:28:12.958Z,2.75
2022-11-07T15:30:40.792Z,2.85
2022-11-07T15:33:12.441Z,5.57
2022-11-07T15:35:44.886Z,7.28
2022-11-07T15:38:17.275Z,10.88
2022-11-07T15:40:45.062Z,3.63
2022-11-07T15:43:12.676Z,7.28
2022-11-07T15:45:40.405Z,4.53
2022-11-07T15:48:08.618Z,10.15
2022-11-07T15:50:42.179Z,2.90
2022-11-07T15:53:11.068Z,6.22
2022-11-07T15:55:38.777Z,4.93
2022-11-07T15:58:06.742Z,6.13
2022-11-07T16:00:34.264Z,3.70
2022-11-07T16:03:03.129Z,3.03
2022-11-07T16:05:30.797Z,10.07
2022-11-07T16:08:01.112Z,7.57
2022-11-07T16:10:28.667Z,8.35
2022-11-07T16:12:58.718Z,7.35
2022-11-07T16:15:28.709Z,6.78
2022-11-07T16:17:56.266Z,4.68
2022-11-07T16:20:24.498Z,8.25
2022-11-07T16:22:52.231Z,8.63
2022-11-07T16:25:22.765Z,13.20
2022-11-07T16:27:51.345Z,13.30
2022-11-07T16:30:19.730Z,9.77
2022-11-07T16:32:48.996Z,8.27
2022-11-07T16:35:16.592Z,12.52
2022-11-07T16:37:44.399Z,16.48
2022-11-07T16:40:14.050Z,7.78
2022-11-07T16:42:43.170Z,15.68
2022-11-07T16:45:11.473Z,19.65
2022-11-07T16:47:39.614Z,16.48
2022-11-07T16:50:07.566Z,17.05
2022-11-07T16:52:35.214Z,12.18
2022-11-07T16:55:04.146Z,11.73
2022-11-07T16:57:32.676Z,13.70
2022-11-07T17:00:01.766Z,22.67
2022-11-07T17:02:29.460Z,39.90
2022-11-07T17:04:57.365Z,54.55
2022-11-07T17:07:25.195Z,30.48
2022-11-07T17:09:52.930Z,17.38
2022-11-07T17:12:21.769Z,7.70
2022-11-07T17:14:50.002Z,6.80
2022-11-07T17:17:19.405Z,12.25
2022-11-07T17:19:47.232Z,10.88
2022-11-07T17:22:15.441Z,11.90
2022-11-07T17:24:43.588Z,11.75
2022-11-07T17:27:17.608Z,17.52
2022-11-07T17:29:45.268Z,17.65
2022-11-07T17:32:12.895Z,13.02
2022-11-07T17:34:41.775Z,13.75
2022-11-07T17:37:13.572Z,19.33
2022-11-07T17:39:41.089Z,14.60
2022-11-07T17:42:10.270Z,13.25
2022-11-07T17:44:37.889Z,12.50
2022-11-07T17:47:06.204Z,5.90
2022-11-07T17:49:33.760Z,30.77
2022-11-07T17:52:03.027Z,4.47
2022-11-07T17:54:33.468Z,7.07
2022-11-07T17:57:03.903Z,8.25
2022-11-07T17:59:31.434Z,14.40
2022-11-07T18:01:59.031Z,10.18
2022-11-07T18:04:26.695Z,9.55
2022-11-07T18:06:54.278Z,8.90
2022-11-07T18:09:23.466Z,19.83
2022-11-07T18:11:51.072Z,14.77
2022-11-07T18:14:18.638Z,9.13
2022-11-07T18:16:46.236Z,17.02
2022-11-07T18:19:15.017Z,21.27
2022-11-07T18:21:43.050Z,15.10
2022-11-07T18:24:10.878Z,20.25
2022-11-07T18:26:40.106Z,19.17
2022-11-07T18:29:08.642Z,23.83
2022-11-07T18:31:36.581Z,21.10
2022-11-07T18:34:05.716Z,17.42
2022-11-07T18:36:35.276Z,18.45
2022-11-07T18:39:07.154Z,22.70
2022-11-07T18:41:34.901Z,21.02
2022-11-07T18:44:05.266Z,16.95
2022-11-07T18:46:33.171Z,23.00
2022-11-07T18:49:01.025Z,17.73
2022-11-07T18:51:28.714Z,16.13
2022-11-07T18:53:56.338Z,18.65
2022-11-07T18:56:23.896Z,13.88
2022-11-07T18:58:51.486Z,10.52
2022-11-07T19:01:21.909Z,7.75
2022-11-07T19:03:49.600Z,9.77
2022-11-07T19:06:18.798Z,8.45
2022-11-07T19:08:48.006Z,10.32
2022-11-07T19:11:17.674Z,22.73
2022-11-07T19:13:46.247Z,16.70
2022-11-07T19:16:15.533Z,143.82
2022-11-07T19:18:49.109Z,258.27
2022-11-07T19:21:19.794Z,82.65
2022-11-07T19:23:48.081Z,31.23
2022-11-07T19:26:16.133Z,26.35
2022-11-07T19:28:43.652Z,25.83
2022-11-07T19:31:12.832Z,12.68
2022-11-07T19:33:40.763Z,15.10
2022-11-07T19:36:12.764Z,11.18
2022-11-07T19:38:40.669Z,13.70
2022-11-07T19:41:09.211Z,14.75
2022-11-07T19:43:37.237Z,15.07
2022-11-07T19:46:07.456Z,11.93
2022-11-07T19:48:35.037Z,9.82
2022-11-07T19:51:05.463Z,13.65
2022-11-07T19:53:34.760Z,11.52
2022-11-07T19:56:08.795Z,16.15
2022-11-07T19:58:37.257Z,13.07
2022-11-07T20:01:11.090Z,14.57
2022-11-07T20:03:38.767Z,14.20
2022-11-07T20:06:10.700Z,19.55
2022-11-07T20:08:39.627Z,18.60
2022-11-07T20:11:10.056Z,13.90
2022-11-07T20:13:37.651Z,17.70
2022-11-07T20:16:08.616Z,16.08
2022-11-07T20:18:36.463Z,16.45
2022-11-07T20:21:05.187Z,21.77
2022-11-07T20:23:33.064Z,14.20
2022-11-07T20:26:02.246Z,17.17
2022-11-07T20:28:29.784Z,13.13
2022-11-07T20:30:57.319Z,17.20
2022-11-07T20:33:25.624Z,14.30
2022-11-07T20:36:00.747Z,18.77
2022-11-07T20:38:28.986Z,17.20
2022-11-07T20:40:56.990Z,16.40
2022-11-07T20:43:26.168Z,17.45
2022-11-07T20:45:53.898Z,13.85
2022-11-07T20:48:21.756Z,19.88
2022-11-07T20:50:49.596Z,16.38
2022-11-07T20:53:17.411Z,18.23
2022-11-07T20:55:45.155Z,16.55
2022-11-07T20:58:13.086Z,18.92
2022-11-07T21:00:42.611Z,23.25
2022-11-07T21:03:15.020Z,21.13
2022-11-07T21:05:42.850Z,16.73
2022-11-07T21:08:10.484Z,19.05
2022-11-07T21:10:38.112Z,17.70
2022-11-07T21:13:05.935Z,18.45
2022-11-07T21:15:33.531Z,16.38
2022-11-07T21:18:03.679Z,18.85
2022-11-07T21:20:31.336Z,16.95
2022-11-07T21:22:59.204Z,15.10
2022-11-07T21:25:26.784Z,13.25
2022-11-07T21:27:54.381Z,16.42
2022-11-07T21:30:22.034Z,17.63
2022-11-07T21:32:49.748Z,18.65
2022-11-07T21:35:19.037Z,15.68
2022-11-07T21:37:47.306Z,12.70
2022-11-07T21:40:14.986Z,16.90
2022-11-07T21:42:42.624Z,14.65
2022-11-07T21:45:10.948Z,12.55
2022-11-07T21:47:43.213Z,20.38
2022-11-07T21:50:38.307Z,14.25
2022-11-07T21:53:06.584Z,15.38
2022-11-07T21:55:34.222Z,14.60
2022-11-07T21:58:01.697Z,18.85
2022-11-07T22:00:33.135Z,12.98
2022-11-07T22:03:03.720Z,13.80
2022-11-07T22:05:31.463Z,12.77
2022-11-07T22:07:59.135Z,13.43
2022-11-07T22:10:28.134Z,17.50
2022-11-07T22:12:55.841Z,11.88
2022-11-07T22:15:23.565Z,19.02
2022-11-07T22:17:51.231Z,15.18
2022-11-07T22:20:18.910Z,22.38
2022-11-07T22:22:46.781Z,22.88
2022-11-07T22:25:14.829Z,16.40
2022-11-07T22:27:43.743Z,21.58
2022-11-07T22:30:11.791Z,22.27
2022-11-07T22:32:39.463Z,17.55
2022-11-07T22:35:09.331Z,20.77
2022-11-07T22:37:37.189Z,16.27
2022-11-07T22:40:05.027Z,15.88
2022-11-07T22:42:32.619Z,14.05
2022-11-07T22:45:01.624Z,14.55
2022-11-07T22:47:29.131Z,18.52
2022-11-07T22:49:56.838Z,15.05
2022-11-07T22:52:24.404Z,15.07
2022-11-07T22:54:51.979Z,17.58
2022-11-07T22:57:19.528Z,17.70
2022-11-07T22:59:47.143Z,16.00
2022-11-07T23:02:16.212Z,17.27
2022-11-07T23:04:43.917Z,15.40
2022-11-07T23:07:11.663Z,17.95
2022-11-07T23:09:39.274Z,14.95
2022-11-07T23:12:06.983Z,15.75
2022-11-07T23:14:34.582Z,16.67
2022-11-07T23:17:02.272Z,16.48
2022-11-07T23:19:31.213Z,13.82
2022-11-07T23:21:59.332Z,15.23
2022-11-07T23:24:26.969Z,14.75
2022-11-07T23:26:54.502Z,17.33
2022-11-07T23:29:22.943Z,14.70
2022-11-07T23:31:52.065Z,11.95
2022-11-07T23:34:20.218Z,13.63
2022-11-07T23:36:50.502Z,17.08
2022-11-07T23:39:19.018Z,10.73
2022-11-07T23:41:46.772Z,14.32
2022-11-07T23:44:15.017Z,22.88
2022-11-07T23:47:00.158Z,15.90
2022-11-07T23:49:45.398Z,17.15
2022-11-07T23:52:14.797Z,16.63
2022-11-07T23:54:59.909Z,14.43
2022-11-07T23:57:27.876Z,19.75
